sensor_id;sensor_type;location;lat;lon;timestamp;P1;durP1;ratioP1;P2;durP2;ratioP2
79047;SDS011;68680;50.764;6.120;2023-03-24T00:02:25;3.05;;;2.80;;
79047;SDS011;68680;50.764;6.120;2023-03-24T00:04:53;4.45;;;2.40;;
79047;SDS011;68680;50.764;6.120;2023-03-24T00:07:19;6.35;;;2.67;;
79047;SDS011;68680;50.764;6.120;2023-03-24T00:09:45;4.65;;;2.50;;
79047;SDS011;68680;50.764;6.120;2023-03-24T00:12:11;3.17;;;2.85;;
79047;SDS011;68680;50.764;6.120;2023-03-24T00:14:38;3.85;;;3.10;;
79047;SDS011;68680;50.764;6.120;2023-03-24T00:17:04;3.80;;;3.00;;
79047;SDS011;68680;50.764;6.120;2023-03-24T00:19:31;4.80;;;3.20;;
79047;SDS011;68680;50.764;6.120;2023-03-24T00:21:58;3.30;;;3.00;;
79047;SDS011;68680;50.764;6.120;2023-03-24T00:24:24;3.72;;;3.03;;
79047;SDS011;68680;50.764;6.120;2023-03-24T00:26:51;4.53;;;2.90;;
79047;SDS011;68680;50.764;6.120;2023-03-24T00:29:17;5.25;;;2.90;;
79047;SDS011;68680;50.764;6.120;2023-03-24T00:31:43;3.88;;;2.80;;
79047;SDS011;68680;50.764;6.120;2023-03-24T00:34:09;5.07;;;3.10;;
79047;SDS011;68680;50.764;6.120;2023-03-24T00:36:35;3.38;;;3.08;;
79047;SDS011;68680;50.764;6.120;2023-03-24T00:39:02;3.45;;;3.17;;
79047;SDS011;68680;50.764;6.120;2023-03-24T00:41:29;5.82;;;4.00;;
79047;SDS011;68680;50.764;6.120;2023-03-24T00:43:55;4.18;;;3.42;;
79047;SDS011;68680;50.764;6.120;2023-03-24T00:46:23;3.85;;;2.90;;
79047;SDS011;68680;50.764;6.120;2023-03-24T00:48:50;3.33;;;3.03;;
79047;SDS011;68680;50.764;6.120;2023-03-24T00:51:16;2.47;;;2.28;;
79047;SDS011;68680;50.764;6.120;2023-03-24T00:53:41;3.53;;;3.28;;
79047;SDS011;68680;50.764;6.120;2023-03-24T00:56:08;3.47;;;3.17;;
79047;SDS011;68680;50.764;6.120;2023-03-24T00:58:34;5.35;;;4.43;;
79047;SDS011;68680;50.764;6.120;2023-03-24T01:01:00;4.95;;;3.60;;
79047;SDS011;68680;50.764;6.120;2023-03-24T01:03:26;4.85;;;3.10;;
79047;SDS011;68680;50.764;6.120;2023-03-24T01:05:52;6.38;;;3.28;;
79047;SDS011;68680;50.764;6.120;2023-03-24T01:08:18;5.30;;;3.70;;
79047;SDS011;68680;50.764;6.120;2023-03-24T01:10:45;6.38;;;3.97;;
79047;SDS011;68680;50.764;6.120;2023-03-24T01:13:14;4.38;;;3.28;;
79047;SDS011;68680;50.764;6.120;2023-03-24T01:15:41;5.53;;;3.90;;
79047;SDS011;68680;50.764;6.120;2023-03-24T01:18:08;4.75;;;3.40;;
79047;SDS011;68680;50.764;6.120;2023-03-24T01:20:34;4.55;;;3.72;;
79047;SDS011;68680;50.764;6.120;2023-03-24T01:23:00;5.45;;;4.05;;
79047;SDS011;68680;50.764;6.120;2023-03-24T01:25:27;4.50;;;4.10;;
79047;SDS011;68680;50.764;6.120;2023-03-24T01:27:53;4.82;;;4.32;;
79047;SDS011;68680;50.764;6.120;2023-03-24T01:30:22;8.73;;;4.00;;
79047;SDS011;68680;50.764;6.120;2023-03-24T01:32:50;7.35;;;4.75;;
79047;SDS011;68680;50.764;6.120;2023-03-24T01:35:17;6.63;;;4.50;;
79047;SDS011;68680;50.764;6.120;2023-03-24T01:37:44;5.97;;;4.05;;
79047;SDS011;68680;50.764;6.120;2023-03-24T01:40:10;4.38;;;3.97;;
79047;SDS011;68680;50.764;6.120;2023-03-24T01:42:43;4.82;;;4.43;;
79047;SDS011;68680;50.764;6.120;2023-03-24T01:48:23;4.72;;;4.32;;
79047;SDS011;68680;50.764;6.120;2023-03-24T01:50:54;6.00;;;4.07;;
79047;SDS011;68680;50.764;6.120;2023-03-24T01:53:24;4.22;;;3.47;;
79047;SDS011;68680;50.764;6.120;2023-03-24T01:55:51;4.80;;;4.20;;
79047;SDS011;68680;50.764;6.120;2023-03-24T01:58:19;3.80;;;3.42;;
79047;SDS011;68680;50.764;6.120;2023-03-24T02:00:48;4.35;;;3.10;;
79047;SDS011;68680;50.764;6.120;2023-03-24T02:03:15;4.28;;;3.30;;
79047;SDS011;68680;50.764;6.120;2023-03-24T02:05:45;4.15;;;3.55;;
79047;SDS011;68680;50.764;6.120;2023-03-24T02:08:15;4.30;;;4.00;;
79047;SDS011;68680;50.764;6.120;2023-03-24T02:10:48;4.55;;;3.20;;
79047;SDS011;68680;50.764;6.120;2023-03-24T02:13:17;4.88;;;4.03;;
79047;SDS011;68680;50.764;6.120;2023-03-24T02:15:44;4.97;;;3.03;;
79047;SDS011;68680;50.764;6.120;2023-03-24T02:18:29;3.33;;;2.80;;
79047;SDS011;68680;50.764;6.120;2023-03-24T02:21:24;3.67;;;3.20;;
79047;SDS011;68680;50.764;6.120;2023-03-24T02:27:34;3.65;;;3.20;;
79047;SDS011;68680;50.764;6.120;2023-03-24T02:30:51;3.55;;;3.13;;
79047;SDS011;68680;50.764;6.120;2023-03-24T02:36:53;4.93;;;2.88;;
79047;SDS011;68680;50.764;6.120;2023-03-24T02:39:59;4.57;;;3.13;;
79047;SDS011;68680;50.764;6.120;2023-03-24T02:42:49;4.45;;;3.00;;
79047;SDS011;68680;50.764;6.120;2023-03-24T02:45:29;4.05;;;3.67;;
79047;SDS011;68680;50.764;6.120;2023-03-24T02:48:16;3.47;;;3.00;;
79047;SDS011;68680;50.764;6.120;2023-03-24T02:53:28;4.47;;;3.80;;
79047;SDS011;68680;50.764;6.120;2023-03-24T02:56:11;3.53;;;3.22;;
79047;SDS011;68680;50.764;6.120;2023-03-24T02:58:46;3.45;;;3.10;;
79047;SDS011;68680;50.764;6.120;2023-03-24T03:01:19;4.20;;;3.83;;
79047;SDS011;68680;50.764;6.120;2023-03-24T03:03:53;4.45;;;3.90;;
79047;SDS011;68680;50.764;6.120;2023-03-24T03:06:25;5.47;;;3.50;;
79047;SDS011;68680;50.764;6.120;2023-03-24T03:08:54;3.42;;;3.13;;
79047;SDS011;68680;50.764;6.120;2023-03-24T03:11:29;3.38;;;3.08;;
79047;SDS011;68680;50.764;6.120;2023-03-24T03:13:56;4.18;;;3.78;;
79047;SDS011;68680;50.764;6.120;2023-03-24T03:16:27;4.15;;;3.58;;
79047;SDS011;68680;50.764;6.120;2023-03-24T03:19:00;4.53;;;3.55;;
79047;SDS011;68680;50.764;6.120;2023-03-24T03:21:33;6.05;;;3.78;;
79047;SDS011;68680;50.764;6.120;2023-03-24T03:24:07;3.58;;;3.28;;
79047;SDS011;68680;50.764;6.120;2023-03-24T03:26:39;4.63;;;3.53;;
79047;SDS011;68680;50.764;6.120;2023-03-24T03:29:10;3.80;;;3.25;;
79047;SDS011;68680;50.764;6.120;2023-03-24T03:31:41;3.45;;;3.15;;
79047;SDS011;68680;50.764;6.120;2023-03-24T03:34:14;5.47;;;3.55;;
79047;SDS011;68680;50.764;6.120;2023-03-24T03:36:52;4.45;;;4.00;;
79047;SDS011;68680;50.764;6.120;2023-03-24T03:39:26;2.80;;;2.60;;
79047;SDS011;68680;50.764;6.120;2023-03-24T03:41:57;4.72;;;3.30;;
79047;SDS011;68680;50.764;6.120;2023-03-24T03:44:23;3.67;;;3.38;;
79047;SDS011;68680;50.764;6.120;2023-03-24T03:46:50;3.72;;;3.40;;
79047;SDS011;68680;50.764;6.120;2023-03-24T03:49:16;3.47;;;3.20;;
79047;SDS011;68680;50.764;6.120;2023-03-24T03:51:42;3.85;;;3.38;;
79047;SDS011;68680;50.764;6.120;2023-03-24T03:54:09;4.13;;;3.78;;
79047;SDS011;68680;50.764;6.120;2023-03-24T03:56:37;5.65;;;3.90;;
79047;SDS011;68680;50.764;6.120;2023-03-24T03:59:07;6.28;;;4.22;;
79047;SDS011;68680;50.764;6.120;2023-03-24T04:01:48;6.45;;;4.63;;
79047;SDS011;68680;50.764;6.120;2023-03-24T04:04:21;6.03;;;5.43;;
79047;SDS011;68680;50.764;6.120;2023-03-24T04:07:07;7.07;;;4.80;;
79047;SDS011;68680;50.764;6.120;2023-03-24T04:09:46;8.35;;;6.05;;
79047;SDS011;68680;50.764;6.120;2023-03-24T04:12:33;7.68;;;6.85;;
79047;SDS011;68680;50.764;6.120;2023-03-24T04:15:34;3.55;;;3.22;;
79047;SDS011;68680;50.764;6.120;2023-03-24T04:21:19;4.20;;;2.95;;
79047;SDS011;68680;50.764;6.120;2023-03-24T04:24:04;3.08;;;2.42;;
79047;SDS011;68680;50.764;6.120;2023-03-24T04:26:47;4.15;;;3.15;;
79047;SDS011;68680;50.764;6.120;2023-03-24T04:29:22;5.68;;;3.28;;
79047;SDS011;68680;50.764;6.120;2023-03-24T04:31:59;5.90;;;3.33;;
79047;SDS011;68680;50.764;6.120;2023-03-24T04:34:35;4.18;;;3.70;;
79047;SDS011;68680;50.764;6.120;2023-03-24T04:37:07;6.10;;;3.47;;
79047;SDS011;68680;50.764;6.120;2023-03-24T04:39:37;2.97;;;2.75;;
79047;SDS011;68680;50.764;6.120;2023-03-24T04:42:10;3.38;;;3.08;;
79047;SDS011;68680;50.764;6.120;2023-03-24T04:44:41;6.03;;;3.30;;
79047;SDS011;68680;50.764;6.120;2023-03-24T04:47:09;4.28;;;2.53;;
79047;SDS011;68680;50.764;6.120;2023-03-24T04:49:36;2.72;;;2.47;;
79047;SDS011;68680;50.764;6.120;2023-03-24T04:52:03;2.97;;;2.67;;
79047;SDS011;68680;50.764;6.120;2023-03-24T04:54:30;7.18;;;3.78;;
79047;SDS011;68680;50.764;6.120;2023-03-24T04:56:56;5.05;;;3.35;;
79047;SDS011;68680;50.764;6.120;2023-03-24T04:59:24;3.03;;;2.70;;
79047;SDS011;68680;50.764;6.120;2023-03-24T05:01:50;7.25;;;3.10;;
79047;SDS011;68680;50.764;6.120;2023-03-24T05:04:18;6.30;;;2.90;;
79047;SDS011;68680;50.764;6.120;2023-03-24T05:06:46;3.45;;;1.88;;
79047;SDS011;68680;50.764;6.120;2023-03-24T05:09:12;9.18;;;2.15;;
79047;SDS011;68680;50.764;6.120;2023-03-24T05:11:38;6.07;;;2.10;;
79047;SDS011;68680;50.764;6.120;2023-03-24T05:14:04;5.13;;;1.88;;
79047;SDS011;68680;50.764;6.120;2023-03-24T05:16:30;7.57;;;2.10;;
79047;SDS011;68680;50.764;6.120;2023-03-24T05:18:56;8.77;;;2.28;;
79047;SDS011;68680;50.764;6.120;2023-03-24T05:21:23;11.02;;;2.92;;
79047;SDS011;68680;50.764;6.120;2023-03-24T05:23:49;4.82;;;1.75;;
79047;SDS011;68680;50.764;6.120;2023-03-24T05:26:14;9.10;;;2.28;;
79047;SDS011;68680;50.764;6.120;2023-03-24T05:28:40;11.75;;;2.90;;
79047;SDS011;68680;50.764;6.120;2023-03-24T05:31:06;9.20;;;2.10;;
79047;SDS011;68680;50.764;6.120;2023-03-24T05:33:32;9.63;;;2.60;;
79047;SDS011;68680;50.764;6.120;2023-03-24T05:35:57;7.15;;;2.10;;
79047;SDS011;68680;50.764;6.120;2023-03-24T05:38:25;5.32;;;2.60;;
79047;SDS011;68680;50.764;6.120;2023-03-24T05:40:50;9.65;;;2.70;;
79047;SDS011;68680;50.764;6.120;2023-03-24T05:43:20;9.10;;;2.67;;
79047;SDS011;68680;50.764;6.120;2023-03-24T05:45:46;5.82;;;2.60;;
79047;SDS011;68680;50.764;6.120;2023-03-24T05:48:15;14.02;;;3.20;;
79047;SDS011;68680;50.764;6.120;2023-03-24T05:50:41;8.82;;;3.33;;
79047;SDS011;68680;50.764;6.120;2023-03-24T05:53:06;8.48;;;2.40;;
79047;SDS011;68680;50.764;6.120;2023-03-24T05:55:34;10.32;;;3.10;;
79047;SDS011;68680;50.764;6.120;2023-03-24T05:58:00;10.30;;;2.70;;
79047;SDS011;68680;50.764;6.120;2023-03-24T06:00:25;11.25;;;3.20;;
79047;SDS011;68680;50.764;6.120;2023-03-24T06:02:52;11.60;;;3.17;;
79047;SDS011;68680;50.764;6.120;2023-03-24T06:05:18;12.73;;;3.28;;
79047;SDS011;68680;50.764;6.120;2023-03-24T06:07:44;9.50;;;3.78;;
79047;SDS011;68680;50.764;6.120;2023-03-24T06:10:10;10.52;;;3.75;;
79047;SDS011;68680;50.764;6.120;2023-03-24T06:12:38;13.25;;;3.60;;
79047;SDS011;68680;50.764;6.120;2023-03-24T06:15:05;11.75;;;3.58;;
79047;SDS011;68680;50.764;6.120;2023-03-24T06:17:32;7.53;;;3.47;;
79047;SDS011;68680;50.764;6.120;2023-03-24T06:19:58;13.98;;;3.42;;
79047;SDS011;68680;50.764;6.120;2023-03-24T06:22:25;9.00;;;3.70;;
79047;SDS011;68680;50.764;6.120;2023-03-24T06:24:50;12.68;;;3.95;;
79047;SDS011;68680;50.764;6.120;2023-03-24T06:27:16;18.70;;;5.15;;
79047;SDS011;68680;50.764;6.120;2023-03-24T06:29:43;10.85;;;4.90;;
79047;SDS011;68680;50.764;6.120;2023-03-24T06:32:09;15.95;;;5.90;;
79047;SDS011;68680;50.764;6.120;2023-03-24T06:34:35;18.90;;;4.88;;
79047;SDS011;68680;50.764;6.120;2023-03-24T06:37:01;12.40;;;4.53;;
79047;SDS011;68680;50.764;6.120;2023-03-24T06:39:27;13.57;;;5.53;;
79047;SDS011;68680;50.764;6.120;2023-03-24T06:41:53;18.05;;;5.22;;
79047;SDS011;68680;50.764;6.120;2023-03-24T06:44:19;11.80;;;4.40;;
79047;SDS011;68680;50.764;6.120;2023-03-24T06:46:46;18.50;;;5.20;;
79047;SDS011;68680;50.764;6.120;2023-03-24T06:49:12;12.38;;;4.53;;
79047;SDS011;68680;50.764;6.120;2023-03-24T06:51:37;18.30;;;4.85;;
79047;SDS011;68680;50.764;6.120;2023-03-24T06:54:03;12.20;;;4.45;;
79047;SDS011;68680;50.764;6.120;2023-03-24T06:56:29;12.50;;;3.70;;
79047;SDS011;68680;50.764;6.120;2023-03-24T06:58:55;22.27;;;4.65;;
79047;SDS011;68680;50.764;6.120;2023-03-24T07:01:21;13.05;;;4.05;;
79047;SDS011;68680;50.764;6.120;2023-03-24T07:03:48;21.35;;;5.55;;
79047;SDS011;68680;50.764;6.120;2023-03-24T07:06:14;15.85;;;5.15;;
79047;SDS011;68680;50.764;6.120;2023-03-24T07:08:39;17.35;;;5.50;;
79047;SDS011;68680;50.764;6.120;2023-03-24T07:11:05;13.85;;;5.18;;
79047;SDS011;68680;50.764;6.120;2023-03-24T07:13:32;16.77;;;5.22;;
79047;SDS011;68680;50.764;6.120;2023-03-24T07:15:57;16.77;;;5.93;;
79047;SDS011;68680;50.764;6.120;2023-03-24T07:18:23;13.55;;;5.70;;
79047;SDS011;68680;50.764;6.120;2023-03-24T07:20:50;17.80;;;5.82;;
79047;SDS011;68680;50.764;6.120;2023-03-24T07:23:16;18.13;;;6.60;;
79047;SDS011;68680;50.764;6.120;2023-03-24T07:25:42;18.98;;;5.22;;
79047;SDS011;68680;50.764;6.120;2023-03-24T07:28:08;24.67;;;6.38;;
79047;SDS011;68680;50.764;6.120;2023-03-24T07:30:34;19.60;;;5.10;;
79047;SDS011;68680;50.764;6.120;2023-03-24T07:33:00;10.10;;;3.67;;
79047;SDS011;68680;50.764;6.120;2023-03-24T07:35:27;11.05;;;4.43;;
79047;SDS011;68680;50.764;6.120;2023-03-24T07:37:57;15.77;;;3.63;;
79047;SDS011;68680;50.764;6.120;2023-03-24T07:40:23;11.25;;;3.60;;
79047;SDS011;68680;50.764;6.120;2023-03-24T07:42:49;16.92;;;3.88;;
79047;SDS011;68680;50.764;6.120;2023-03-24T07:45:15;13.55;;;3.30;;
79047;SDS011;68680;50.764;6.120;2023-03-24T07:47:41;12.15;;;4.43;;
79047;SDS011;68680;50.764;6.120;2023-03-24T07:50:09;17.38;;;5.43;;
79047;SDS011;68680;50.764;6.120;2023-03-24T07:52:37;11.70;;;3.10;;
79047;SDS011;68680;50.764;6.120;2023-03-24T07:55:06;26.50;;;10.75;;
79047;SDS011;68680;50.764;6.120;2023-03-24T07:57:34;17.02;;;4.72;;
79047;SDS011;68680;50.764;6.120;2023-03-24T08:00:00;12.82;;;2.95;;
79047;SDS011;68680;50.764;6.120;2023-03-24T08:02:26;13.30;;;3.15;;
79047;SDS011;68680;50.764;6.120;2023-03-24T08:04:52;11.13;;;3.15;;
79047;SDS011;68680;50.764;6.120;2023-03-24T08:07:17;12.98;;;3.20;;
79047;SDS011;68680;50.764;6.120;2023-03-24T08:09:44;16.58;;;3.63;;
79047;SDS011;68680;50.764;6.120;2023-03-24T08:12:11;20.27;;;4.05;;
79047;SDS011;68680;50.764;6.120;2023-03-24T08:14:37;10.40;;;2.83;;
79047;SDS011;68680;50.764;6.120;2023-03-24T08:17:03;11.23;;;3.33;;
79047;SDS011;68680;50.764;6.120;2023-03-24T08:19:28;12.82;;;4.30;;
79047;SDS011;68680;50.764;6.120;2023-03-24T08:21:54;25.30;;;8.85;;
79047;SDS011;68680;50.764;6.120;2023-03-24T08:24:20;10.57;;;4.47;;
79047;SDS011;68680;50.764;6.120;2023-03-24T08:26:46;13.30;;;3.83;;
79047;SDS011;68680;50.764;6.120;2023-03-24T08:29:13;11.15;;;4.13;;
79047;SDS011;68680;50.764;6.120;2023-03-24T08:31:39;12.45;;;4.28;;
79047;SDS011;68680;50.764;6.120;2023-03-24T08:34:05;13.02;;;4.30;;
79047;SDS011;68680;50.764;6.120;2023-03-24T08:36:31;11.23;;;3.75;;
79047;SDS011;68680;50.764;6.120;2023-03-24T08:38:57;11.80;;;4.13;;
79047;SDS011;68680;50.764;6.120;2023-03-24T08:41:22;15.32;;;4.85;;
79047;SDS011;68680;50.764;6.120;2023-03-24T08:43:48;13.80;;;3.90;;
79047;SDS011;68680;50.764;6.120;2023-03-24T08:46:15;15.20;;;4.03;;
79047;SDS011;68680;50.764;6.120;2023-03-24T08:48:41;11.60;;;3.60;;
79047;SDS011;68680;50.764;6.120;2023-03-24T08:51:10;10.80;;;3.90;;
79047;SDS011;68680;50.764;6.120;2023-03-24T08:53:37;14.98;;;3.40;;
79047;SDS011;68680;50.764;6.120;2023-03-24T08:56:03;14.40;;;3.78;;
79047;SDS011;68680;50.764;6.120;2023-03-24T08:58:30;14.45;;;3.10;;
79047;SDS011;68680;50.764;6.120;2023-03-24T09:00:55;12.82;;;2.97;;
79047;SDS011;68680;50.764;6.120;2023-03-24T09:03:22;16.65;;;2.83;;
79047;SDS011;68680;50.764;6.120;2023-03-24T09:05:48;13.50;;;2.75;;
79047;SDS011;68680;50.764;6.120;2023-03-24T09:08:16;12.55;;;3.22;;
79047;SDS011;68680;50.764;6.120;2023-03-24T09:10:43;17.35;;;3.40;;
79047;SDS011;68680;50.764;6.120;2023-03-24T09:13:10;14.32;;;2.95;;
79047;SDS011;68680;50.764;6.120;2023-03-24T09:15:36;7.38;;;1.88;;
79047;SDS011;68680;50.764;6.120;2023-03-24T09:18:02;10.57;;;2.72;;
79047;SDS011;68680;50.764;6.120;2023-03-24T09:20:29;16.15;;;2.35;;
79047;SDS011;68680;50.764;6.120;2023-03-24T09:22:55;11.63;;;3.10;;
79047;SDS011;68680;50.764;6.120;2023-03-24T09:25:22;13.45;;;2.60;;
79047;SDS011;68680;50.764;6.120;2023-03-24T09:27:48;7.00;;;2.25;;
79047;SDS011;68680;50.764;6.120;2023-03-24T09:30:15;9.75;;;2.40;;
79047;SDS011;68680;50.764;6.120;2023-03-24T09:32:42;10.25;;;2.75;;
79047;SDS011;68680;50.764;6.120;2023-03-24T09:35:09;12.63;;;2.20;;
79047;SDS011;68680;50.764;6.120;2023-03-24T09:37:37;10.63;;;2.22;;
79047;SDS011;68680;50.764;6.120;2023-03-24T09:40:04;13.15;;;2.78;;
79047;SDS011;68680;50.764;6.120;2023-03-24T09:42:32;10.80;;;2.20;;
79047;SDS011;68680;50.764;6.120;2023-03-24T09:45:03;9.02;;;2.88;;
79047;SDS011;68680;50.764;6.120;2023-03-24T09:47:36;8.05;;;1.98;;
79047;SDS011;68680;50.764;6.120;2023-03-24T09:50:07;10.05;;;4.43;;
79047;SDS011;68680;50.764;6.120;2023-03-24T09:52:46;47.15;;;20.23;;
79047;SDS011;68680;50.764;6.120;2023-03-24T09:55:18;9.20;;;2.65;;
79047;SDS011;68680;50.764;6.120;2023-03-24T09:57:49;17.42;;;2.72;;
79047;SDS011;68680;50.764;6.120;2023-03-24T10:00:18;6.72;;;2.08;;
79047;SDS011;68680;50.764;6.120;2023-03-24T10:02:47;11.77;;;2.22;;
79047;SDS011;68680;50.764;6.120;2023-03-24T10:05:14;10.80;;;2.60;;
79047;SDS011;68680;50.764;6.120;2023-03-24T10:07:46;13.50;;;2.70;;
79047;SDS011;68680;50.764;6.120;2023-03-24T10:10:21;9.55;;;2.22;;
79047;SDS011;68680;50.764;6.120;2023-03-24T10:13:03;19.40;;;2.20;;
79047;SDS011;68680;50.764;6.120;2023-03-24T10:15:38;14.10;;;2.28;;
79047;SDS011;68680;50.764;6.120;2023-03-24T10:18:22;7.78;;;1.48;;
79047;SDS011;68680;50.764;6.120;2023-03-24T10:20:59;7.60;;;2.63;;
79047;SDS011;68680;50.764;6.120;2023-03-24T10:23:35;9.80;;;1.65;;
79047;SDS011;68680;50.764;6.120;2023-03-24T10:26:13;8.93;;;1.90;;
79047;SDS011;68680;50.764;6.120;2023-03-24T10:29:00;8.75;;;1.77;;
79047;SDS011;68680;50.764;6.120;2023-03-24T10:31:41;10.90;;;1.60;;
79047;SDS011;68680;50.764;6.120;2023-03-24T10:34:14;9.73;;;1.60;;
79047;SDS011;68680;50.764;6.120;2023-03-24T10:36:42;6.57;;;1.60;;
79047;SDS011;68680;50.764;6.120;2023-03-24T10:39:12;9.80;;;1.50;;
79047;SDS011;68680;50.764;6.120;2023-03-24T10:41:40;10.25;;;1.95;;
79047;SDS011;68680;50.764;6.120;2023-03-24T10:44:08;2.90;;;1.00;;
79047;SDS011;68680;50.764;6.120;2023-03-24T10:46:35;15.57;;;2.28;;
79047;SDS011;68680;50.764;6.120;2023-03-24T10:49:13;8.95;;;1.60;;
79047;SDS011;68680;50.764;6.120;2023-03-24T10:51:43;8.32;;;1.83;;
79047;SDS011;68680;50.764;6.120;2023-03-24T10:54:14;7.22;;;1.50;;
79047;SDS011;68680;50.764;6.120;2023-03-24T10:56:44;6.88;;;1.63;;
79047;SDS011;68680;50.764;6.120;2023-03-24T11:02:00;13.13;;;1.90;;
79047;SDS011;68680;50.764;6.120;2023-03-24T11:04:43;10.00;;;1.40;;
79047;SDS011;68680;50.764;6.120;2023-03-24T11:07:16;11.50;;;2.10;;
79047;SDS011;68680;50.764;6.120;2023-03-24T11:09:46;11.40;;;2.00;;
79047;SDS011;68680;50.764;6.120;2023-03-24T11:12:27;10.35;;;1.65;;
79047;SDS011;68680;50.764;6.120;2023-03-24T11:15:02;8.50;;;1.98;;
79047;SDS011;68680;50.764;6.120;2023-03-24T11:17:40;11.23;;;2.10;;
79047;SDS011;68680;50.764;6.120;2023-03-24T11:20:13;5.05;;;1.42;;
79047;SDS011;68680;50.764;6.120;2023-03-24T11:22:47;10.38;;;1.70;;
79047;SDS011;68680;50.764;6.120;2023-03-24T11:25:28;8.85;;;1.98;;
79047;SDS011;68680;50.764;6.120;2023-03-24T11:27:58;8.63;;;1.55;;
79047;SDS011;68680;50.764;6.120;2023-03-24T11:30:32;6.28;;;1.70;;
79047;SDS011;68680;50.764;6.120;2023-03-24T11:33:00;7.60;;;1.45;;
79047;SDS011;68680;50.764;6.120;2023-03-24T11:35:27;8.85;;;1.55;;
79047;SDS011;68680;50.764;6.120;2023-03-24T11:37:53;8.95;;;2.15;;
79047;SDS011;68680;50.764;6.120;2023-03-24T11:40:21;11.15;;;2.05;;
79047;SDS011;68680;50.764;6.120;2023-03-24T11:42:52;8.70;;;1.63;;
79047;SDS011;68680;50.764;6.120;2023-03-24T11:45:26;7.85;;;1.85;;
79047;SDS011;68680;50.764;6.120;2023-03-24T11:48:03;12.20;;;1.63;;
79047;SDS011;68680;50.764;6.120;2023-03-24T11:50:41;12.27;;;1.77;;
79047;SDS011;68680;50.764;6.120;2023-03-24T11:53:10;6.88;;;2.40;;
79047;SDS011;68680;50.764;6.120;2023-03-24T11:55:43;9.48;;;1.58;;
79047;SDS011;68680;50.764;6.120;2023-03-24T11:58:19;7.72;;;1.70;;
79047;SDS011;68680;50.764;6.120;2023-03-24T12:00:55;5.15;;;1.42;;
79047;SDS011;68680;50.764;6.120;2023-03-24T12:03:35;5.68;;;1.33;;
79047;SDS011;68680;50.764;6.120;2023-03-24T12:06:34;7.80;;;1.33;;
79047;SDS011;68680;50.764;6.120;2023-03-24T12:09:28;8.15;;;1.42;;
79047;SDS011;68680;50.764;6.120;2023-03-24T12:12:16;7.47;;;1.52;;
79047;SDS011;68680;50.764;6.120;2023-03-24T12:15:04;7.40;;;1.30;;
79047;SDS011;68680;50.764;6.120;2023-03-24T12:17:48;4.65;;;1.10;;
79047;SDS011;68680;50.764;6.120;2023-03-24T12:20:25;4.80;;;1.60;;
79047;SDS011;68680;50.764;6.120;2023-03-24T12:22:58;7.40;;;1.30;;
79047;SDS011;68680;50.764;6.120;2023-03-24T12:25:44;11.27;;;1.63;;
79047;SDS011;68680;50.764;6.120;2023-03-24T12:28:36;5.78;;;1.35;;
79047;SDS011;68680;50.764;6.120;2023-03-24T12:31:22;9.60;;;1.60;;
79047;SDS011;68680;50.764;6.120;2023-03-24T12:34:19;7.10;;;1.10;;
79047;SDS011;68680;50.764;6.120;2023-03-24T12:37:21;2.92;;;0.95;;
79047;SDS011;68680;50.764;6.120;2023-03-24T12:39:58;6.25;;;1.38;;
79047;SDS011;68680;50.764;6.120;2023-03-24T12:42:47;7.72;;;1.50;;
79047;SDS011;68680;50.764;6.120;2023-03-24T12:45:32;7.15;;;1.65;;
79047;SDS011;68680;50.764;6.120;2023-03-24T12:48:14;4.50;;;1.23;;
79047;SDS011;68680;50.764;6.120;2023-03-24T12:51:02;4.15;;;1.33;;
79047;SDS011;68680;50.764;6.120;2023-03-24T12:53:48;6.63;;;1.35;;
79047;SDS011;68680;50.764;6.120;2023-03-24T12:56:30;4.53;;;1.23;;
79047;SDS011;68680;50.764;6.120;2023-03-24T12:59:05;7.82;;;1.30;;
79047;SDS011;68680;50.764;6.120;2023-03-24T13:01:40;6.57;;;1.33;;
79047;SDS011;68680;50.764;6.120;2023-03-24T13:04:14;4.28;;;1.50;;
79047;SDS011;68680;50.764;6.120;2023-03-24T13:06:47;7.95;;;1.42;;
79047;SDS011;68680;50.764;6.120;2023-03-24T13:09:18;12.65;;;5.22;;
79047;SDS011;68680;50.764;6.120;2023-03-24T13:11:56;8.77;;;1.63;;
79047;SDS011;68680;50.764;6.120;2023-03-24T13:14:28;10.18;;;1.33;;
79047;SDS011;68680;50.764;6.120;2023-03-24T13:17:04;8.32;;;1.23;;
79047;SDS011;68680;50.764;6.120;2023-03-24T13:19:40;7.32;;;1.10;;
79047;SDS011;68680;50.764;6.120;2023-03-24T13:22:08;6.20;;;1.33;;
79047;SDS011;68680;50.764;6.120;2023-03-24T13:24:43;4.30;;;1.17;;
79047;SDS011;68680;50.764;6.120;2023-03-24T13:27:18;7.30;;;1.77;;
79047;SDS011;68680;50.764;6.120;2023-03-24T13:32:57;5.90;;;1.60;;
79047;SDS011;68680;50.764;6.120;2023-03-24T13:35:43;9.30;;;1.67;;
79047;SDS011;68680;50.764;6.120;2023-03-24T13:38:32;8.38;;;1.50;;
79047;SDS011;68680;50.764;6.120;2023-03-24T13:41:03;5.85;;;1.25;;
79047;SDS011;68680;50.764;6.120;2023-03-24T13:43:31;5.38;;;1.48;;
79047;SDS011;68680;50.764;6.120;2023-03-24T13:45:59;2.47;;;1.00;;
79047;SDS011;68680;50.764;6.120;2023-03-24T13:48:32;5.47;;;0.77;;
79047;SDS011;68680;50.764;6.120;2023-03-24T13:51:05;2.75;;;0.73;;
79047;SDS011;68680;50.764;6.120;2023-03-24T13:53:42;5.70;;;1.10;;
79047;SDS011;68680;50.764;6.120;2023-03-24T13:56:20;6.05;;;0.98;;
79047;SDS011;68680;50.764;6.120;2023-03-24T13:59:05;1.55;;;0.90;;
79047;SDS011;68680;50.764;6.120;2023-03-24T14:02:09;3.42;;;0.90;;
79047;SDS011;68680;50.764;6.120;2023-03-24T14:05:04;2.50;;;0.40;;
79047;SDS011;68680;50.764;6.120;2023-03-24T14:07:47;5.45;;;1.02;;
79047;SDS011;68680;50.764;6.120;2023-03-24T14:13:21;3.55;;;0.90;;
79047;SDS011;68680;50.764;6.120;2023-03-24T14:15:58;1.83;;;0.65;;
79047;SDS011;68680;50.764;6.120;2023-03-24T14:18:44;3.45;;;0.73;;
79047;SDS011;68680;50.764;6.120;2023-03-24T14:21:12;2.95;;;1.05;;
79047;SDS011;68680;50.764;6.120;2023-03-24T14:23:40;3.72;;;1.00;;
79047;SDS011;68680;50.764;6.120;2023-03-24T14:26:11;4.43;;;0.93;;
79047;SDS011;68680;50.764;6.120;2023-03-24T14:28:40;5.45;;;1.63;;
79047;SDS011;68680;50.764;6.120;2023-03-24T14:31:09;2.85;;;1.73;;
79047;SDS011;68680;50.764;6.120;2023-03-24T14:33:55;5.55;;;1.55;;
79047;SDS011;68680;50.764;6.120;2023-03-24T14:36:27;3.33;;;1.33;;
79047;SDS011;68680;50.764;6.120;2023-03-24T14:39:01;4.97;;;1.17;;
79047;SDS011;68680;50.764;6.120;2023-03-24T14:41:34;6.28;;;1.58;;
79047;SDS011;68680;50.764;6.120;2023-03-24T14:44:03;4.60;;;1.38;;
79047;SDS011;68680;50.764;6.120;2023-03-24T14:46:37;4.93;;;1.70;;
79047;SDS011;68680;50.764;6.120;2023-03-24T14:49:16;5.03;;;1.00;;
79047;SDS011;68680;50.764;6.120;2023-03-24T14:51:50;5.55;;;1.20;;
79047;SDS011;68680;50.764;6.120;2023-03-24T14:54:27;7.40;;;1.48;;
79047;SDS011;68680;50.764;6.120;2023-03-24T14:57:00;4.65;;;1.08;;
79047;SDS011;68680;50.764;6.120;2023-03-24T14:59:33;5.18;;;1.20;;
79047;SDS011;68680;50.764;6.120;2023-03-24T15:05:13;7.28;;;1.30;;
79047;SDS011;68680;50.764;6.120;2023-03-24T15:07:57;6.22;;;1.15;;
79047;SDS011;68680;50.764;6.120;2023-03-24T15:10:36;10.02;;;1.92;;
79047;SDS011;68680;50.764;6.120;2023-03-24T15:13:22;9.52;;;2.45;;
79047;SDS011;68680;50.764;6.120;2023-03-24T15:15:57;6.35;;;2.03;;
79047;SDS011;68680;50.764;6.120;2023-03-24T15:18:25;6.85;;;1.73;;
79047;SDS011;68680;50.764;6.120;2023-03-24T15:20:51;9.80;;;1.20;;
79047;SDS011;68680;50.764;6.120;2023-03-24T15:23:19;5.00;;;1.00;;
79047;SDS011;68680;50.764;6.120;2023-03-24T15:25:49;12.48;;;1.90;;
79047;SDS011;68680;50.764;6.120;2023-03-24T15:28:17;13.27;;;1.95;;
79047;SDS011;68680;50.764;6.120;2023-03-24T15:30:46;9.73;;;1.87;;
79047;SDS011;68680;50.764;6.120;2023-03-24T15:33:12;3.55;;;1.58;;
79047;SDS011;68680;50.764;6.120;2023-03-24T15:35:38;8.93;;;1.67;;
79047;SDS011;68680;50.764;6.120;2023-03-24T15:38:05;8.90;;;2.35;;